HFY9E BIKF-EIDW
Flight info
| Callsign | HFY9E |
|---|---|
| Flight time | 2h 1m |
| Altitude | 35000 |
| Route | PIXUM PETUX PEVAN REVNU ENULA OLAPO |
| Aircraft | A339/H-VGDW/C |
Departure
| Time | 2026-05-06 19:44 |
|---|---|
| Airport | Keflavik International Airport (BIKF) |
Arrival
| Time | 2026-05-06 21:45 |
|---|---|
| Airport | Dublin Airport (EIDW) |
| Time | Latitude | Longitude | Altitude | Speed | Heading |
|---|---|---|---|---|---|
| 2026-05-06 19:06 | 63.99282 | -22.62308 | 162 ft | 0 kts | 359° |
| 2026-05-06 19:28 | 63.99267 | -22.62308 | 162 ft | 2 kts | 359° |
| 2026-05-06 19:28 | 63.99251 | -22.62307 | 162 ft | 2 kts | 359° |
| 2026-05-06 19:28 | 63.99234 | -22.62306 | 162 ft | 2 kts | 359° |
| 2026-05-06 19:28 | 63.99218 | -22.62309 | 162 ft | 2 kts | 20° |
| 2026-05-06 19:29 | 63.99203 | -22.62323 | 161 ft | 2 kts | 30° |
| 2026-05-06 19:29 | 63.99189 | -22.62344 | 161 ft | 2 kts | 41° |
| 2026-05-06 19:29 | 63.99177 | -22.62371 | 160 ft | 2 kts | 62° |
| 2026-05-06 19:29 | 63.99173 | -22.62389 | 160 ft | 1 kts | 84° |
| 2026-05-06 19:30 | 63.99173 | -22.62391 | 160 ft | 0 kts | 85° |
| 2026-05-06 19:30 | 63.99173 | -22.62390 | 160 ft | 0 kts | 85° |
| 2026-05-06 19:34 | 63.99172 | -22.62357 | 160 ft | 3 kts | 90° |
| 2026-05-06 19:34 | 63.99172 | -22.62258 | 161 ft | 6 kts | 91° |
| 2026-05-06 19:34 | 63.99171 | -22.62143 | 163 ft | 10 kts | 90° |
| 2026-05-06 19:34 | 63.99171 | -22.62000 | 164 ft | 8 kts | 90° |
| 2026-05-06 19:35 | 63.99171 | -22.61841 | 166 ft | 12 kts | 89° |
| 2026-05-06 19:35 | 63.99171 | -22.61639 | 168 ft | 13 kts | 90° |
| 2026-05-06 19:35 | 63.99172 | -22.61441 | 169 ft | 13 kts | 90° |
| 2026-05-06 19:35 | 63.99171 | -22.61233 | 171 ft | 13 kts | 89° |
| 2026-05-06 19:36 | 63.99172 | -22.61051 | 172 ft | 10 kts | 90° |
| 2026-05-06 19:36 | 63.99141 | -22.60962 | 172 ft | 7 kts | 156° |
| 2026-05-06 19:36 | 63.99071 | -22.60947 | 171 ft | 12 kts | 180° |
| 2026-05-06 19:36 | 63.98979 | -22.60946 | 170 ft | 14 kts | 179° |
| 2026-05-06 19:37 | 63.98872 | -22.60946 | 169 ft | 18 kts | 180° |
| 2026-05-06 19:37 | 63.98743 | -22.60948 | 168 ft | 19 kts | 180° |
| 2026-05-06 19:37 | 63.98613 | -22.60945 | 165 ft | 18 kts | 178° |
| 2026-05-06 19:37 | 63.98523 | -22.60941 | 164 ft | 20 kts | 179° |
| 2026-05-06 19:38 | 63.98338 | -22.60937 | 164 ft | 20 kts | 181° |
| 2026-05-06 19:38 | 63.98194 | -22.60946 | 164 ft | 21 kts | 181° |
| 2026-05-06 19:38 | 63.98043 | -22.60950 | 163 ft | 22 kts | 180° |
| 2026-05-06 19:38 | 63.97884 | -22.60948 | 161 ft | 23 kts | 179° |
| 2026-05-06 19:39 | 63.97717 | -22.60947 | 160 ft | 25 kts | 180° |
| 2026-05-06 19:39 | 63.97543 | -22.60948 | 158 ft | 26 kts | 180° |
| 2026-05-06 19:39 | 63.97362 | -22.60948 | 156 ft | 26 kts | 180° |
| 2026-05-06 19:39 | 63.97178 | -22.60949 | 154 ft | 27 kts | 180° |
| 2026-05-06 19:40 | 63.96984 | -22.60951 | 152 ft | 28 kts | 179° |
| 2026-05-06 19:40 | 63.96789 | -22.60946 | 150 ft | 29 kts | 179° |
| 2026-05-06 19:40 | 63.96599 | -22.60945 | 149 ft | 24 kts | 181° |
| 2026-05-06 19:40 | 63.96501 | -22.60933 | 148 ft | 11 kts | 165° |
| 2026-05-06 19:41 | 63.96465 | -22.60823 | 147 ft | 2 kts | 102° |
| 2026-05-06 19:41 | 63.96465 | -22.60816 | 147 ft | 0 kts | 101° |
| 2026-05-06 19:42 | 63.96465 | -22.60814 | 147 ft | 2 kts | 100° |
| 2026-05-06 19:42 | 63.96462 | -22.60698 | 147 ft | 10 kts | 90° |
| 2026-05-06 19:42 | 63.96470 | -22.60542 | 146 ft | 6 kts | 60° |
| 2026-05-06 19:42 | 63.96486 | -22.60539 | 147 ft | 3 kts | 357° |
| 2026-05-06 19:43 | 63.96500 | -22.60542 | 147 ft | 1 kts | 356° |
| 2026-05-06 19:43 | 63.96518 | -22.60543 | 147 ft | 8 kts | 359° |
| 2026-05-06 19:43 | 63.96765 | -22.60541 | 152 ft | 69 kts | 1° |
| 2026-05-06 19:43 | 63.97458 | -22.60544 | 159 ft | 128 kts | 360° |
| 2026-05-06 19:44 | 63.98511 | -22.60532 | 223 ft | 171 kts | 2° |
| 2026-05-06 19:44 | 63.99713 | -22.60594 | 999 ft | 169 kts | 2° |
| 2026-05-06 19:44 | 64.00847 | -22.60689 | 2000 ft | 161 kts | 1° |
| 2026-05-06 19:44 | 64.01611 | -22.60774 | 2375 ft | 171 kts | 1° |
| 2026-05-06 19:45 | 64.02860 | -22.60864 | 2699 ft | 188 kts | 3° |
| 2026-05-06 19:45 | 64.04226 | -22.60828 | 2995 ft | 205 kts | 5° |
| 2026-05-06 19:45 | 64.05650 | -22.60243 | 3580 ft | 214 kts | 26° |
| 2026-05-06 19:45 | 64.06690 | -22.57776 | 4283 ft | 228 kts | 60° |
| 2026-05-06 19:46 | 64.06904 | -22.54069 | 4994 ft | 245 kts | 87° |
| 2026-05-06 19:46 | 64.06685 | -22.50148 | 5673 ft | 251 kts | 90° |
| 2026-05-06 19:46 | 64.06389 | -22.46196 | 6363 ft | 259 kts | 99° |
| 2026-05-06 19:46 | 64.05418 | -22.42571 | 7042 ft | 280 kts | 128° |
| 2026-05-06 19:47 | 64.03899 | -22.39685 | 7707 ft | 288 kts | 137° |
| 2026-05-06 19:47 | 64.02254 | -22.37075 | 8353 ft | 293 kts | 140° |
| 2026-05-06 19:47 | 64.00525 | -22.34575 | 8997 ft | 296 kts | 142° |
| 2026-05-06 19:47 | 63.98740 | -22.32160 | 9634 ft | 300 kts | 144° |
| 2026-05-06 19:48 | 63.96916 | -22.29791 | 10258 ft | 303 kts | 145° |
| 2026-05-06 19:48 | 63.95036 | -22.27399 | 10570 ft | 319 kts | 145° |
| 2026-05-06 19:48 | 63.93035 | -22.24869 | 10726 ft | 339 kts | 146° |
| 2026-05-06 19:48 | 63.90923 | -22.22216 | 10894 ft | 356 kts | 146° |
| 2026-05-06 19:49 | 63.88703 | -22.19443 | 11084 ft | 371 kts | 147° |
| 2026-05-06 19:49 | 63.86398 | -22.16574 | 11273 ft | 384 kts | 147° |
| 2026-05-06 19:49 | 63.84044 | -22.13607 | 11664 ft | 388 kts | 145° |
| 2026-05-06 19:49 | 63.81770 | -22.10310 | 12171 ft | 388 kts | 141° |
| 2026-05-06 19:50 | 63.79567 | -22.06771 | 12635 ft | 389 kts | 139° |
| 2026-05-06 19:50 | 63.77398 | -22.03056 | 13102 ft | 391 kts | 137° |
| 2026-05-06 19:50 | 63.75268 | -21.99230 | 13546 ft | 393 kts | 136° |
| 2026-05-06 19:50 | 63.73148 | -21.95321 | 14003 ft | 395 kts | 135° |
| 2026-05-06 19:51 | 63.71014 | -21.91348 | 14441 ft | 398 kts | 135° |
| 2026-05-06 19:51 | 63.68875 | -21.87349 | 14886 ft | 400 kts | 135° |
| 2026-05-06 19:51 | 63.66731 | -21.83333 | 15336 ft | 402 kts | 135° |
| 2026-05-06 19:51 | 63.64595 | -21.79336 | 15755 ft | 405 kts | 135° |
| 2026-05-06 19:52 | 63.62420 | -21.75272 | 16173 ft | 407 kts | 135° |
| 2026-05-06 19:52 | 63.60232 | -21.71191 | 16598 ft | 410 kts | 135° |
| 2026-05-06 19:52 | 63.58168 | -21.66812 | 16989 ft | 406 kts | 126° |
| 2026-05-06 19:52 | 63.56447 | -21.61819 | 17393 ft | 405 kts | 120° |
| 2026-05-06 19:53 | 63.54839 | -21.56612 | 17804 ft | 406 kts | 118° |
| 2026-05-06 19:53 | 63.53284 | -21.51305 | 18215 ft | 408 kts | 117° |
| 2026-05-06 19:53 | 63.51757 | -21.45923 | 18604 ft | 410 kts | 117° |
| 2026-05-06 19:53 | 63.50250 | -21.40494 | 19009 ft | 412 kts | 116° |
| 2026-05-06 19:54 | 63.48747 | -21.35006 | 19403 ft | 414 kts | 116° |
| 2026-05-06 19:54 | 63.47245 | -21.29482 | 19794 ft | 416 kts | 116° |
| 2026-05-06 19:54 | 63.45740 | -21.23917 | 20187 ft | 419 kts | 116° |
| 2026-05-06 19:54 | 63.44229 | -21.18323 | 20578 ft | 421 kts | 116° |
| 2026-05-06 19:55 | 63.42732 | -21.12782 | 20947 ft | 423 kts | 116° |
| 2026-05-06 19:55 | 63.41207 | -21.07135 | 21315 ft | 426 kts | 116° |
| 2026-05-06 19:55 | 63.39674 | -21.01471 | 21682 ft | 428 kts | 116° |
| 2026-05-06 19:55 | 63.38129 | -20.95771 | 22053 ft | 430 kts | 116° |
| 2026-05-06 19:56 | 63.36487 | -20.90155 | 22412 ft | 435 kts | 120° |
| 2026-05-06 19:56 | 63.34734 | -20.84636 | 22766 ft | 438 kts | 121° |
| 2026-05-06 19:56 | 63.32926 | -20.79149 | 23114 ft | 441 kts | 122° |
| 2026-05-06 19:56 | 63.31085 | -20.73672 | 23468 ft | 443 kts | 122° |
| 2026-05-06 19:57 | 63.29223 | -20.68199 | 23798 ft | 446 kts | 122° |
| 2026-05-06 19:57 | 63.27337 | -20.62696 | 24143 ft | 448 kts | 122° |
| 2026-05-06 19:57 | 63.25435 | -20.57179 | 24476 ft | 450 kts | 123° |
| 2026-05-06 19:57 | 63.23524 | -20.51660 | 24808 ft | 452 kts | 123° |
| 2026-05-06 19:58 | 63.21596 | -20.46113 | 25142 ft | 455 kts | 123° |
| 2026-05-06 19:58 | 63.19656 | -20.40545 | 25453 ft | 457 kts | 123° |
| 2026-05-06 19:58 | 63.17706 | -20.34966 | 25769 ft | 459 kts | 123° |
| 2026-05-06 19:58 | 63.15744 | -20.29365 | 26087 ft | 461 kts | 123° |
| 2026-05-06 19:59 | 63.13797 | -20.23825 | 26393 ft | 463 kts | 123° |
| 2026-05-06 19:59 | 63.11812 | -20.18190 | 26702 ft | 465 kts | 123° |
| 2026-05-06 19:59 | 63.09818 | -20.12542 | 26997 ft | 467 kts | 123° |
| 2026-05-06 19:59 | 63.07812 | -20.06876 | 27295 ft | 470 kts | 123° |
| 2026-05-06 20:00 | 63.05794 | -20.01188 | 27596 ft | 472 kts | 123° |
| 2026-05-06 20:00 | 63.03764 | -19.95485 | 27876 ft | 474 kts | 123° |
| 2026-05-06 20:00 | 63.01723 | -19.89764 | 28144 ft | 476 kts | 124° |
| 2026-05-06 20:00 | 62.99675 | -19.84037 | 28419 ft | 478 kts | 124° |
| 2026-05-06 20:01 | 62.97611 | -19.78282 | 28684 ft | 479 kts | 124° |
| 2026-05-06 20:01 | 62.95537 | -19.72510 | 28936 ft | 481 kts | 124° |
| 2026-05-06 20:01 | 62.93453 | -19.66729 | 29177 ft | 483 kts | 124° |
| 2026-05-06 20:01 | 62.91362 | -19.60945 | 29499 ft | 483 kts | 124° |
| 2026-05-06 20:02 | 62.89274 | -19.55185 | 29821 ft | 482 kts | 124° |
| 2026-05-06 20:02 | 62.87184 | -19.49435 | 30159 ft | 481 kts | 124° |
| 2026-05-06 20:02 | 62.85096 | -19.43702 | 30494 ft | 481 kts | 124° |
| 2026-05-06 20:02 | 62.83012 | -19.37996 | 30823 ft | 480 kts | 124° |
| 2026-05-06 20:03 | 62.80922 | -19.32288 | 31145 ft | 479 kts | 124° |
| 2026-05-06 20:03 | 62.78866 | -19.26686 | 31473 ft | 479 kts | 124° |
| 2026-05-06 20:03 | 62.76784 | -19.21027 | 31796 ft | 478 kts | 124° |
| 2026-05-06 20:03 | 62.74612 | -19.15544 | 32094 ft | 482 kts | 132° |
| 2026-05-06 20:04 | 62.72004 | -19.10879 | 32386 ft | 485 kts | 139° |
| 2026-05-06 20:04 | 62.69269 | -19.06557 | 32685 ft | 486 kts | 141° |
| 2026-05-06 20:04 | 62.66493 | -19.02358 | 33008 ft | 486 kts | 142° |
| 2026-05-06 20:04 | 62.63698 | -18.98226 | 33320 ft | 485 kts | 142° |
| 2026-05-06 20:05 | 62.60892 | -18.94137 | 33635 ft | 485 kts | 142° |
| 2026-05-06 20:05 | 62.58100 | -18.90107 | 34127 ft | 480 kts | 142° |
| 2026-05-06 20:05 | 62.55316 | -18.86110 | 34328 ft | 482 kts | 143° |
| 2026-05-06 20:05 | 62.52515 | -18.82103 | 34560 ft | 483 kts | 143° |
| 2026-05-06 20:06 | 62.49712 | -18.78108 | 34853 ft | 482 kts | 143° |
| 2026-05-06 20:06 | 62.46929 | -18.74159 | 35060 ft | 473 kts | 143° |
| 2026-05-06 20:06 | 62.44183 | -18.70276 | 35162 ft | 472 kts | 143° |
| 2026-05-06 20:06 | 62.41418 | -18.66368 | 35201 ft | 477 kts | 143° |
| 2026-05-06 20:07 | 62.35839 | -18.58504 | 35225 ft | 484 kts | 143° |
| 2026-05-06 20:07 | 62.30215 | -18.50628 | 35230 ft | 480 kts | 143° |
| 2026-05-06 20:08 | 62.24608 | -18.42817 | 35231 ft | 480 kts | 143° |
| 2026-05-06 20:08 | 62.18986 | -18.35018 | 35231 ft | 482 kts | 143° |
| 2026-05-06 20:09 | 62.13357 | -18.27249 | 35232 ft | 481 kts | 143° |
| 2026-05-06 20:09 | 62.07732 | -18.19521 | 35232 ft | 480 kts | 143° |
| 2026-05-06 20:10 | 62.02130 | -18.11859 | 35233 ft | 482 kts | 143° |
| 2026-05-06 20:10 | 61.96488 | -18.04178 | 35233 ft | 481 kts | 143° |
| 2026-05-06 20:11 | 61.90852 | -17.96540 | 35232 ft | 480 kts | 143° |
| 2026-05-06 20:11 | 61.85198 | -17.88910 | 35233 ft | 481 kts | 144° |
| 2026-05-06 20:12 | 61.79531 | -17.81298 | 35233 ft | 482 kts | 144° |
| 2026-05-06 20:12 | 61.73873 | -17.73734 | 35234 ft | 481 kts | 144° |
| 2026-05-06 20:13 | 61.68221 | -17.66211 | 35233 ft | 481 kts | 144° |
| 2026-05-06 20:13 | 61.62545 | -17.58686 | 35233 ft | 482 kts | 144° |
| 2026-05-06 20:14 | 61.56868 | -17.51195 | 35233 ft | 481 kts | 144° |
| 2026-05-06 20:14 | 61.51237 | -17.43799 | 35233 ft | 481 kts | 144° |
| 2026-05-06 20:15 | 61.45557 | -17.36368 | 35235 ft | 482 kts | 144° |
| 2026-05-06 20:15 | 61.39864 | -17.28954 | 35233 ft | 482 kts | 144° |
| 2026-05-06 20:16 | 61.34173 | -17.21576 | 35233 ft | 481 kts | 144° |
| 2026-05-06 20:16 | 61.28438 | -17.14166 | 35234 ft | 491 kts | 144° |
| 2026-05-06 20:17 | 61.22561 | -17.06599 | 35234 ft | 499 kts | 144° |
| 2026-05-06 20:17 | 61.16646 | -16.99031 | 35233 ft | 500 kts | 144° |
| 2026-05-06 20:18 | 61.10726 | -16.91494 | 35234 ft | 500 kts | 145° |
| 2026-05-06 20:18 | 61.04798 | -16.83980 | 35233 ft | 500 kts | 145° |
| 2026-05-06 20:19 | 60.98868 | -16.76498 | 35233 ft | 499 kts | 145° |
| 2026-05-06 20:19 | 60.92937 | -16.69046 | 35233 ft | 499 kts | 145° |
| 2026-05-06 20:20 | 60.87040 | -16.61668 | 35234 ft | 499 kts | 145° |
| 2026-05-06 20:20 | 60.81111 | -16.54284 | 35233 ft | 499 kts | 145° |
| 2026-05-06 20:21 | 60.75164 | -16.46909 | 35233 ft | 499 kts | 145° |
| 2026-05-06 20:21 | 60.69229 | -16.39580 | 35233 ft | 499 kts | 145° |
| 2026-05-06 20:22 | 60.63284 | -16.32271 | 35233 ft | 499 kts | 145° |
| 2026-05-06 20:22 | 60.57335 | -16.24988 | 35234 ft | 499 kts | 145° |
| 2026-05-06 20:23 | 60.51425 | -16.17785 | 35233 ft | 499 kts | 146° |
| 2026-05-06 20:23 | 60.45468 | -16.10556 | 35233 ft | 499 kts | 146° |
| 2026-05-06 20:24 | 60.39505 | -16.03352 | 35233 ft | 499 kts | 146° |
| 2026-05-06 20:24 | 60.33541 | -15.96176 | 35233 ft | 499 kts | 146° |
| 2026-05-06 20:25 | 60.27568 | -15.89020 | 35235 ft | 499 kts | 146° |
| 2026-05-06 20:25 | 60.21598 | -15.81899 | 35234 ft | 499 kts | 146° |
| 2026-05-06 20:26 | 60.15618 | -15.74796 | 35233 ft | 499 kts | 146° |
| 2026-05-06 20:26 | 60.09640 | -15.67726 | 35233 ft | 499 kts | 146° |
| 2026-05-06 20:27 | 60.03651 | -15.60674 | 35233 ft | 499 kts | 146° |
| 2026-05-06 20:27 | 59.97700 | -15.53695 | 35234 ft | 499 kts | 146° |
| 2026-05-06 20:28 | 59.91704 | -15.46694 | 35233 ft | 499 kts | 146° |
| 2026-05-06 20:28 | 59.85702 | -15.39716 | 35233 ft | 499 kts | 146° |
| 2026-05-06 20:29 | 59.79695 | -15.32760 | 35233 ft | 499 kts | 146° |
| 2026-05-06 20:29 | 59.73686 | -15.25832 | 35233 ft | 499 kts | 146° |
| 2026-05-06 20:30 | 59.65685 | -15.16652 | 35233 ft | 499 kts | 146° |
| 2026-05-06 20:31 | 59.59672 | -15.09787 | 35234 ft | 499 kts | 146° |
| 2026-05-06 20:31 | 59.53646 | -15.02935 | 35234 ft | 499 kts | 147° |
| 2026-05-06 20:32 | 59.46652 | -14.95019 | 35234 ft | 499 kts | 147° |
| 2026-05-06 20:32 | 59.41640 | -14.89370 | 35234 ft | 499 kts | 147° |
| 2026-05-06 20:33 | 59.35610 | -14.82599 | 35235 ft | 499 kts | 147° |
| 2026-05-06 20:33 | 59.29574 | -14.75849 | 35233 ft | 499 kts | 147° |
| 2026-05-06 20:34 | 59.23529 | -14.69116 | 35233 ft | 499 kts | 147° |
| 2026-05-06 20:34 | 59.17474 | -14.62401 | 35233 ft | 499 kts | 147° |
| 2026-05-06 20:35 | 59.11467 | -14.55766 | 35235 ft | 499 kts | 147° |
| 2026-05-06 20:35 | 59.05419 | -14.49114 | 35234 ft | 499 kts | 147° |
| 2026-05-06 20:36 | 58.99365 | -14.42481 | 35233 ft | 499 kts | 147° |
| 2026-05-06 20:36 | 58.93303 | -14.35867 | 35234 ft | 500 kts | 147° |
| 2026-05-06 20:37 | 58.87241 | -14.29279 | 35233 ft | 500 kts | 147° |
| 2026-05-06 20:37 | 58.81213 | -14.22755 | 35233 ft | 500 kts | 147° |
| 2026-05-06 20:38 | 58.75136 | -14.16205 | 35233 ft | 500 kts | 147° |
| 2026-05-06 20:38 | 58.69065 | -14.09687 | 35234 ft | 500 kts | 147° |
| 2026-05-06 20:39 | 58.62981 | -14.03182 | 35233 ft | 500 kts | 147° |
| 2026-05-06 20:39 | 58.56908 | -13.96715 | 35233 ft | 500 kts | 147° |
| 2026-05-06 20:40 | 58.50829 | -13.90266 | 35233 ft | 500 kts | 147° |
| 2026-05-06 20:40 | 58.44736 | -13.83829 | 35234 ft | 500 kts | 148° |
| 2026-05-06 20:41 | 58.38646 | -13.77421 | 35233 ft | 500 kts | 148° |
| 2026-05-06 20:41 | 58.32555 | -13.71037 | 35233 ft | 500 kts | 148° |
| 2026-05-06 20:42 | 58.26492 | -13.64708 | 35233 ft | 500 kts | 148° |
| 2026-05-06 20:42 | 58.20387 | -13.58360 | 35233 ft | 500 kts | 148° |
| 2026-05-06 20:43 | 58.14282 | -13.52037 | 35234 ft | 500 kts | 148° |
| 2026-05-06 20:43 | 58.08175 | -13.45737 | 35233 ft | 500 kts | 148° |
| 2026-05-06 20:44 | 58.02062 | -13.39454 | 35233 ft | 500 kts | 148° |
| 2026-05-06 20:44 | 57.95948 | -13.33196 | 35233 ft | 500 kts | 148° |
| 2026-05-06 20:45 | 57.89833 | -13.26962 | 35233 ft | 500 kts | 148° |
| 2026-05-06 20:45 | 57.83705 | -13.20739 | 35233 ft | 500 kts | 148° |
| 2026-05-06 20:46 | 57.77617 | -13.14580 | 35234 ft | 500 kts | 148° |
| 2026-05-06 20:46 | 57.71485 | -13.08401 | 35233 ft | 500 kts | 148° |
| 2026-05-06 20:47 | 57.65348 | -13.02239 | 35233 ft | 500 kts | 148° |
| 2026-05-06 20:47 | 57.59213 | -12.96105 | 35234 ft | 500 kts | 148° |
| 2026-05-06 20:48 | 57.53080 | -12.89995 | 35233 ft | 500 kts | 148° |
| 2026-05-06 20:48 | 57.46938 | -12.83901 | 35233 ft | 500 kts | 148° |
| 2026-05-06 20:49 | 57.40792 | -12.77826 | 35233 ft | 500 kts | 148° |
| 2026-05-06 20:49 | 57.34678 | -12.71805 | 35233 ft | 500 kts | 148° |
| 2026-05-06 20:50 | 57.28534 | -12.65777 | 35233 ft | 500 kts | 149° |
| 2026-05-06 20:50 | 57.22369 | -12.59752 | 35233 ft | 500 kts | 149° |
| 2026-05-06 20:51 | 57.16207 | -12.53754 | 35233 ft | 500 kts | 149° |
| 2026-05-06 20:51 | 57.10044 | -12.47776 | 35233 ft | 500 kts | 149° |
| 2026-05-06 20:52 | 57.03910 | -12.41850 | 35233 ft | 500 kts | 149° |
| 2026-05-06 20:52 | 56.97738 | -12.35909 | 35233 ft | 500 kts | 149° |
| 2026-05-06 20:53 | 56.91560 | -12.29985 | 35233 ft | 500 kts | 149° |
| 2026-05-06 20:53 | 56.85388 | -12.24088 | 35234 ft | 500 kts | 149° |
| 2026-05-06 20:54 | 56.79214 | -12.18212 | 35234 ft | 500 kts | 149° |
| 2026-05-06 20:54 | 56.73030 | -12.12349 | 35233 ft | 500 kts | 149° |
| 2026-05-06 20:55 | 56.66843 | -12.06505 | 35233 ft | 501 kts | 149° |
| 2026-05-06 20:55 | 56.60691 | -12.00715 | 35233 ft | 501 kts | 149° |
| 2026-05-06 20:56 | 56.54500 | -11.94909 | 35234 ft | 501 kts | 149° |
| 2026-05-06 20:56 | 56.48303 | -11.89120 | 35233 ft | 501 kts | 149° |
| 2026-05-06 20:57 | 56.42108 | -11.83353 | 35234 ft | 501 kts | 149° |
| 2026-05-06 20:57 | 56.35909 | -11.77604 | 35233 ft | 501 kts | 149° |
| 2026-05-06 20:58 | 56.29706 | -11.71874 | 35234 ft | 501 kts | 149° |
| 2026-05-06 20:58 | 56.23501 | -11.66162 | 35233 ft | 501 kts | 149° |
| 2026-05-06 20:59 | 56.17328 | -11.60500 | 35235 ft | 501 kts | 149° |
| 2026-05-06 20:59 | 56.11123 | -11.54829 | 35233 ft | 501 kts | 149° |
| 2026-05-06 21:00 | 56.04904 | -11.49167 | 35234 ft | 501 kts | 150° |
| 2026-05-06 21:00 | 55.98694 | -11.43533 | 35233 ft | 501 kts | 150° |
| 2026-05-06 21:01 | 55.92471 | -11.37908 | 35233 ft | 501 kts | 150° |
| 2026-05-06 21:01 | 55.86244 | -11.32300 | 35233 ft | 501 kts | 150° |
| 2026-05-06 21:02 | 55.80046 | -11.26737 | 35233 ft | 501 kts | 150° |
| 2026-05-06 21:02 | 55.73823 | -11.21172 | 35233 ft | 501 kts | 150° |
| 2026-05-06 21:03 | 55.67587 | -11.15617 | 35233 ft | 501 kts | 150° |
| 2026-05-06 21:03 | 55.61355 | -11.10083 | 35234 ft | 501 kts | 150° |
| 2026-05-06 21:04 | 55.55119 | -11.04567 | 35233 ft | 501 kts | 150° |
| 2026-05-06 21:04 | 55.48881 | -10.99069 | 35233 ft | 501 kts | 150° |
| 2026-05-06 21:05 | 55.42676 | -10.93619 | 35233 ft | 499 kts | 150° |
| 2026-05-06 21:05 | 55.36447 | -10.88168 | 35234 ft | 499 kts | 150° |
| 2026-05-06 21:06 | 55.30214 | -10.82730 | 35234 ft | 500 kts | 150° |
| 2026-05-06 21:06 | 55.23980 | -10.77313 | 35234 ft | 499 kts | 150° |
| 2026-05-06 21:07 | 55.17793 | -10.71955 | 35234 ft | 499 kts | 150° |
| 2026-05-06 21:07 | 55.11509 | -10.66531 | 35233 ft | 500 kts | 150° |
| 2026-05-06 21:08 | 55.05305 | -10.61195 | 35234 ft | 499 kts | 150° |
| 2026-05-06 21:08 | 54.99068 | -10.55850 | 35234 ft | 500 kts | 150° |
| 2026-05-06 21:09 | 54.92820 | -10.50514 | 35233 ft | 500 kts | 150° |
| 2026-05-06 21:09 | 54.86570 | -10.45196 | 35233 ft | 500 kts | 150° |
| 2026-05-06 21:10 | 54.80326 | -10.39900 | 35234 ft | 500 kts | 150° |
| 2026-05-06 21:10 | 54.74070 | -10.34612 | 35234 ft | 500 kts | 150° |
| 2026-05-06 21:11 | 54.67812 | -10.29342 | 35233 ft | 500 kts | 150° |
| 2026-05-06 21:11 | 54.61558 | -10.24093 | 35233 ft | 499 kts | 151° |
| 2026-05-06 21:12 | 54.55332 | -10.18885 | 35234 ft | 500 kts | 151° |
| 2026-05-06 21:12 | 54.49095 | -10.13581 | 35231 ft | 497 kts | 146° |
| 2026-05-06 21:12 | 54.46414 | -10.09938 | 35235 ft | 488 kts | 129° |
| 2026-05-06 21:13 | 54.44449 | -10.05278 | 35240 ft | 479 kts | 114° |
| 2026-05-06 21:13 | 54.41671 | -9.94939 | 35234 ft | 476 kts | 108° |
| 2026-05-06 21:14 | 54.39123 | -9.84488 | 35233 ft | 474 kts | 108° |
| 2026-05-06 21:14 | 54.36583 | -9.74042 | 35233 ft | 475 kts | 108° |
| 2026-05-06 21:15 | 54.33997 | -9.63604 | 35249 ft | 473 kts | 108° |
| 2026-05-06 21:15 | 54.31415 | -9.53286 | 35238 ft | 470 kts | 117° |
| 2026-05-06 21:15 | 54.30168 | -9.48182 | 35226 ft | 459 kts | 114° |
| 2026-05-06 21:16 | 54.28871 | -9.43160 | 35232 ft | 465 kts | 115° |
| 2026-05-06 21:16 | 54.26245 | -9.33159 | 35127 ft | 450 kts | 115° |
| 2026-05-06 21:16 | 54.24974 | -9.28350 | 34702 ft | 446 kts | 115° |
| 2026-05-06 21:17 | 54.23695 | -9.23534 | 34165 ft | 443 kts | 115° |
| 2026-05-06 21:17 | 54.22426 | -9.18773 | 33646 ft | 439 kts | 115° |
| 2026-05-06 21:17 | 54.21163 | -9.14046 | 33123 ft | 435 kts | 115° |
| 2026-05-06 21:17 | 54.19910 | -9.09369 | 32594 ft | 431 kts | 116° |
| 2026-05-06 21:18 | 54.18664 | -9.04728 | 32055 ft | 427 kts | 116° |
| 2026-05-06 21:18 | 54.17430 | -9.00137 | 31528 ft | 424 kts | 116° |
| 2026-05-06 21:18 | 54.16205 | -8.95588 | 30983 ft | 420 kts | 116° |
| 2026-05-06 21:18 | 54.15394 | -8.92586 | 30611 ft | 418 kts | 116° |
| 2026-05-06 21:19 | 54.14182 | -8.88104 | 30087 ft | 414 kts | 116° |
| 2026-05-06 21:19 | 54.12979 | -8.83661 | 29545 ft | 411 kts | 116° |
| 2026-05-06 21:19 | 54.11779 | -8.79244 | 28996 ft | 408 kts | 116° |
| 2026-05-06 21:19 | 54.10592 | -8.74880 | 28502 ft | 404 kts | 116° |
| 2026-05-06 21:20 | 54.09412 | -8.70551 | 27982 ft | 400 kts | 116° |
| 2026-05-06 21:20 | 54.08242 | -8.66269 | 27451 ft | 397 kts | 116° |
| 2026-05-06 21:20 | 54.07082 | -8.62027 | 26929 ft | 393 kts | 116° |
| 2026-05-06 21:20 | 54.05933 | -8.57835 | 26403 ft | 390 kts | 116° |
| 2026-05-06 21:21 | 54.04788 | -8.53668 | 25880 ft | 387 kts | 116° |
| 2026-05-06 21:21 | 54.03651 | -8.49536 | 25352 ft | 384 kts | 116° |
| 2026-05-06 21:21 | 54.02521 | -8.45438 | 24840 ft | 381 kts | 116° |
| 2026-05-06 21:21 | 54.01402 | -8.41387 | 24311 ft | 378 kts | 116° |
| 2026-05-06 21:22 | 54.00288 | -8.37362 | 23796 ft | 375 kts | 116° |
| 2026-05-06 21:22 | 53.99181 | -8.33366 | 23289 ft | 372 kts | 116° |
| 2026-05-06 21:22 | 53.98165 | -8.29344 | 22796 ft | 369 kts | 113° |
| 2026-05-06 21:22 | 53.97250 | -8.25281 | 22297 ft | 366 kts | 111° |
| 2026-05-06 21:23 | 53.96389 | -8.21227 | 21796 ft | 364 kts | 111° |
| 2026-05-06 21:23 | 53.95557 | -8.17186 | 21305 ft | 361 kts | 110° |
| 2026-05-06 21:23 | 53.94745 | -8.13165 | 20797 ft | 358 kts | 110° |
| 2026-05-06 21:23 | 53.93949 | -8.09181 | 20322 ft | 355 kts | 110° |
| 2026-05-06 21:24 | 53.93163 | -8.05216 | 19823 ft | 353 kts | 110° |
| 2026-05-06 21:24 | 53.92385 | -8.01282 | 19318 ft | 350 kts | 110° |
| 2026-05-06 21:24 | 53.91615 | -7.97376 | 18837 ft | 347 kts | 110° |
| 2026-05-06 21:24 | 53.90861 | -7.93554 | 18328 ft | 345 kts | 110° |
| 2026-05-06 21:25 | 53.90092 | -7.89660 | 17827 ft | 342 kts | 110° |
| 2026-05-06 21:25 | 53.89349 | -7.85898 | 17436 ft | 340 kts | 110° |
| 2026-05-06 21:25 | 53.88604 | -7.82129 | 17232 ft | 335 kts | 110° |
| 2026-05-06 21:25 | 53.87866 | -7.78404 | 17157 ft | 334 kts | 110° |
| 2026-05-06 21:26 | 53.87122 | -7.74664 | 17117 ft | 337 kts | 110° |
| 2026-05-06 21:26 | 53.86366 | -7.70871 | 17105 ft | 339 kts | 110° |
| 2026-05-06 21:26 | 53.85611 | -7.67083 | 17098 ft | 339 kts | 110° |
| 2026-05-06 21:26 | 53.84856 | -7.63304 | 17092 ft | 339 kts | 110° |
| 2026-05-06 21:27 | 53.84099 | -7.59522 | 17087 ft | 339 kts | 110° |
| 2026-05-06 21:27 | 53.83341 | -7.55738 | 17087 ft | 340 kts | 110° |
| 2026-05-06 21:27 | 53.82580 | -7.51953 | 17092 ft | 340 kts | 110° |
| 2026-05-06 21:27 | 53.81818 | -7.48166 | 17087 ft | 339 kts | 110° |
| 2026-05-06 21:28 | 53.81057 | -7.44387 | 17087 ft | 339 kts | 110° |
| 2026-05-06 21:28 | 53.80294 | -7.40613 | 17087 ft | 339 kts | 110° |
| 2026-05-06 21:28 | 53.79529 | -7.36831 | 17087 ft | 339 kts | 110° |
| 2026-05-06 21:28 | 53.79006 | -7.32940 | 16963 ft | 340 kts | 98° |
| 2026-05-06 21:29 | 53.78851 | -7.28949 | 16685 ft | 339 kts | 93° |
| 2026-05-06 21:29 | 53.78830 | -7.25021 | 16295 ft | 338 kts | 91° |
| 2026-05-06 21:29 | 53.78882 | -7.21069 | 15802 ft | 336 kts | 89° |
| 2026-05-06 21:29 | 53.78983 | -7.17119 | 15285 ft | 333 kts | 88° |
| 2026-05-06 21:30 | 53.79119 | -7.13221 | 14769 ft | 331 kts | 88° |
| 2026-05-06 21:30 | 53.79278 | -7.09349 | 14252 ft | 328 kts | 87° |
| 2026-05-06 21:30 | 53.79452 | -7.05511 | 13738 ft | 326 kts | 86° |
| 2026-05-06 21:30 | 53.79637 | -7.01702 | 13225 ft | 323 kts | 86° |
| 2026-05-06 21:31 | 53.79826 | -6.97923 | 12693 ft | 321 kts | 86° |
| 2026-05-06 21:31 | 53.80019 | -6.94171 | 12168 ft | 318 kts | 86° |
| 2026-05-06 21:31 | 53.80210 | -6.90465 | 11636 ft | 316 kts | 86° |
| 2026-05-06 21:31 | 53.80398 | -6.86833 | 11102 ft | 313 kts | 86° |
| 2026-05-06 21:32 | 53.80590 | -6.83156 | 10566 ft | 311 kts | 86° |
| 2026-05-06 21:32 | 53.80953 | -6.76211 | 10040 ft | 282 kts | 86° |
| 2026-05-06 21:32 | 53.81122 | -6.72931 | 9451 ft | 278 kts | 86° |
| 2026-05-06 21:33 | 53.81287 | -6.69677 | 8864 ft | 277 kts | 86° |
| 2026-05-06 21:33 | 53.81447 | -6.66493 | 8601 ft | 263 kts | 86° |
| 2026-05-06 21:33 | 53.81526 | -6.63494 | 8316 ft | 247 kts | 98° |
| 2026-05-06 21:33 | 53.80938 | -6.60908 | 7916 ft | 234 kts | 131° |
| 2026-05-06 21:34 | 53.79659 | -6.59358 | 7295 ft | 224 kts | 164° |
| 2026-05-06 21:34 | 53.78125 | -6.59122 | 6511 ft | 226 kts | 182° |
| 2026-05-06 21:34 | 53.76567 | -6.59241 | 5824 ft | 223 kts | 184° |
| 2026-05-06 21:34 | 53.75024 | -6.59380 | 5162 ft | 221 kts | 184° |
| 2026-05-06 21:35 | 53.73493 | -6.59499 | 4585 ft | 221 kts | 182° |
| 2026-05-06 21:35 | 53.71946 | -6.59569 | 4261 ft | 220 kts | 182° |
| 2026-05-06 21:35 | 53.70458 | -6.59942 | 4127 ft | 215 kts | 193° |
| 2026-05-06 21:35 | 53.69003 | -6.60587 | 4059 ft | 217 kts | 195° |
| 2026-05-06 21:36 | 53.67544 | -6.61237 | 4032 ft | 217 kts | 194° |
| 2026-05-06 21:36 | 53.66083 | -6.61870 | 4012 ft | 217 kts | 194° |
| 2026-05-06 21:36 | 53.64616 | -6.62501 | 4016 ft | 218 kts | 194° |
| 2026-05-06 21:36 | 53.63168 | -6.63122 | 3997 ft | 217 kts | 194° |
| 2026-05-06 21:37 | 53.61708 | -6.63746 | 4002 ft | 217 kts | 194° |
| 2026-05-06 21:37 | 53.60239 | -6.64369 | 4006 ft | 218 kts | 194° |
| 2026-05-06 21:37 | 53.58774 | -6.64983 | 4005 ft | 216 kts | 194° |
| 2026-05-06 21:37 | 53.57310 | -6.65593 | 4004 ft | 217 kts | 194° |
| 2026-05-06 21:38 | 53.55873 | -6.66180 | 4005 ft | 200 kts | 193° |
| 2026-05-06 21:38 | 53.54585 | -6.66613 | 4005 ft | 185 kts | 190° |
| 2026-05-06 21:38 | 53.53293 | -6.66953 | 4013 ft | 190 kts | 188° |
| 2026-05-06 21:38 | 53.51979 | -6.67224 | 4014 ft | 189 kts | 186° |
| 2026-05-06 21:39 | 53.50657 | -6.67447 | 4002 ft | 191 kts | 186° |
| 2026-05-06 21:39 | 53.49334 | -6.67645 | 3997 ft | 191 kts | 185° |
| 2026-05-06 21:39 | 53.48009 | -6.67832 | 4003 ft | 191 kts | 185° |
| 2026-05-06 21:39 | 53.46687 | -6.67862 | 3997 ft | 191 kts | 168° |
| 2026-05-06 21:40 | 53.45571 | -6.66690 | 4006 ft | 196 kts | 127° |
| 2026-05-06 21:40 | 53.45156 | -6.64519 | 4019 ft | 200 kts | 95° |
| 2026-05-06 21:40 | 53.45114 | -6.62185 | 4000 ft | 200 kts | 92° |
| 2026-05-06 21:40 | 53.45102 | -6.59880 | 3986 ft | 201 kts | 92° |
| 2026-05-06 21:41 | 53.45096 | -6.57609 | 3707 ft | 186 kts | 92° |
| 2026-05-06 21:41 | 53.45105 | -6.55489 | 3443 ft | 179 kts | 91° |
| 2026-05-06 21:41 | 53.45097 | -6.53413 | 3196 ft | 177 kts | 95° |
| 2026-05-06 21:41 | 53.45012 | -6.51345 | 2943 ft | 177 kts | 97° |
| 2026-05-06 21:42 | 53.44901 | -6.49296 | 2733 ft | 176 kts | 98° |
| 2026-05-06 21:42 | 53.44793 | -6.47351 | 2498 ft | 156 kts | 98° |
| 2026-05-06 21:42 | 53.44696 | -6.45590 | 2306 ft | 150 kts | 98° |
| 2026-05-06 21:42 | 53.44593 | -6.43845 | 2104 ft | 150 kts | 98° |
| 2026-05-06 21:43 | 53.44495 | -6.42131 | 1900 ft | 147 kts | 98° |
| 2026-05-06 21:43 | 53.44399 | -6.40410 | 1708 ft | 148 kts | 98° |
| 2026-05-06 21:43 | 53.44303 | -6.38694 | 1503 ft | 148 kts | 98° |
| 2026-05-06 21:43 | 53.44210 | -6.36984 | 1308 ft | 147 kts | 98° |
| 2026-05-06 21:44 | 53.44115 | -6.35289 | 1113 ft | 146 kts | 98° |
| 2026-05-06 21:44 | 53.44021 | -6.33614 | 916 ft | 146 kts | 97° |
| 2026-05-06 21:44 | 53.43927 | -6.31913 | 732 ft | 146 kts | 97° |
| 2026-05-06 21:44 | 53.43833 | -6.30221 | 526 ft | 146 kts | 97° |
| 2026-05-06 21:45 | 53.43742 | -6.28525 | 312 ft | 146 kts | 97° |
| 2026-05-06 21:45 | 53.43652 | -6.26903 | 227 ft | 120 kts | 96° |
| 2026-05-06 21:45 | 53.43600 | -6.25950 | 228 ft | 44 kts | 96° |
| 2026-05-06 21:45 | 53.43584 | -6.25637 | 223 ft | 13 kts | 95° |
| 2026-05-06 21:46 | 53.43575 | -6.25474 | 223 ft | 9 kts | 97° |
| 2026-05-06 21:46 | 53.43535 | -6.25251 | 223 ft | 26 kts | 114° |
| 2026-05-06 21:46 | 53.43468 | -6.25053 | 226 ft | 14 kts | 121° |
| 2026-05-06 21:46 | 53.43420 | -6.24996 | 223 ft | 4 kts | 172° |
| 2026-05-06 21:47 | 53.43387 | -6.25045 | 221 ft | 11 kts | 253° |
| 2026-05-06 21:47 | 53.43393 | -6.25253 | 222 ft | 14 kts | 276° |
| 2026-05-06 21:47 | 53.43395 | -6.25270 | 220 ft | 0 kts | 276° |
| 2026-05-06 21:47 | 53.43395 | -6.25280 | 220 ft | 5 kts | 275° |
| 2026-05-06 21:48 | 53.43399 | -6.25365 | 222 ft | 9 kts | 274° |
| 2026-05-06 21:48 | 53.43404 | -6.25474 | 222 ft | 7 kts | 275° |
| 2026-05-06 21:48 | 53.43405 | -6.25480 | 221 ft | 0 kts | 275° |
| 2026-05-06 21:48 | 53.43409 | -6.25550 | 220 ft | 10 kts | 275° |
| 2026-05-06 21:49 | 53.43386 | -6.25635 | 224 ft | 7 kts | 214° |
| 2026-05-06 21:49 | 53.43340 | -6.25632 | 223 ft | 8 kts | 164° |
| 2026-05-06 21:49 | 53.43287 | -6.25603 | 222 ft | 8 kts | 163° |
| 2026-05-06 21:49 | 53.43233 | -6.25574 | 225 ft | 9 kts | 160° |
| 2026-05-06 21:50 | 53.43144 | -6.25512 | 225 ft | 15 kts | 157° |
| 2026-05-06 21:50 | 53.43040 | -6.25437 | 225 ft | 16 kts | 157° |
| 2026-05-06 21:50 | 53.42954 | -6.25359 | 221 ft | 9 kts | 124° |
| 2026-05-06 21:50 | 53.42963 | -6.25231 | 214 ft | 15 kts | 81° |
| 2026-05-06 21:51 | 53.42961 | -6.25129 | 213 ft | 7 kts | 96° |
| 2026-05-06 21:51 | 53.42974 | -6.25072 | 217 ft | 1 kts | 32° |
| 2026-05-06 21:51 | 53.42980 | -6.25075 | 215 ft | 1 kts | 359° |
| 2026-05-06 21:51 | 53.43008 | -6.25074 | 216 ft | 4 kts | 3° |
| 2026-05-06 21:52 | 53.43019 | -6.25072 | 219 ft | 0 kts | 5° |